首页
METAR-TAF:

METAR-TAF

机场 :

Appleton, 威斯康辛州, 美国

纬度: 44-15N, 经度: 088-31W, 海拔: 280米

当前天气观测

该预报发布于24分钟前的07:15 UTC
风速11节,风向
温度 1°C
湿度 64%
气压 1021 hPa
能見度: 16.1公里
阴天层高于2900英尺

METAR: KATW 310715Z AUTO 01011KT 10SM OVC029 01/M05 A3014 RMK AO2

时间: 02:39 (07:39 UTC)

预报

该预报发布于2小时和19分钟前的05:20 UTC
预报有效从31日的 06点(UTC)到 01日的 06点(UTC)
风速6节,风向北转东北
能見度: 10公里
多云层高于4000英尺
从 31日的 0700点(UTC)
风速5节,风向北转东北
能見度: 10公里
多云层高于2300英尺
阴天层高于4000英尺
短暂存在
从 31日的 07点(UTC)到 31日的 09点(UTC)
散云层高于2500英尺
多云层高于4000英尺
从 31日的 1100点(UTC)
风速7节,风向北转东北
能見度: 10公里
多云层高于1400英尺
从 31日的 1600点(UTC)
风速8节,风向东北
能見度: 10公里
多云层高于2400英尺
从 31日的 2000点(UTC)
风速5节,风向东北
能見度: 10公里
多云层高于4000英尺

TAF: KATW 310520Z 3106/0106 03006KT P6SM BKN040 FM310700 02005KT P6SM BKN023 OVC040 TEMPO 3107/3109 SCT025 BKN040 FM311100 02007KT P6SM BKN014 FM311600 04008KT P6SM BKN024 FM312000 05005KT P6SM BKN040

超过4000个机场的气象观测和天气预报(METAR&TAF报告)。

可查询的气象台以黄色和红色小点在地图上表示。

将鼠标移到小点上方,可查看气象台名称。

然后点击查看天气观测和预报。

如需切换地图:点击带黑十字的绿色按钮放大地图;点击带横线的绿色按钮缩小地图;或者点击绿色箭头查看邻近地区的地图。


METAR-TAF: